»·PEaware :: N630AJ KPSP-KSBA

N630AJ :: KPSP-KSBA

FLIGHT INFORMATION

Flight Status: Arrived
Operator: Privately registered:
United States
More flights under this callsign
Pilot: David J. (16724)
Aircraft: Unknown
(EPIC)
More flights by this aircraft type
Origin: KPSP Palm Springs Intl
United States
Destination: KSBA Santa Barbara Mun
United States
More flights between these airports :: More routes between these airports
Route: +CATH1 PSP V388 PDZ V197 POM V264 ITSME V186 DEANO V27 KWANG
File this flight plan on PilotEdge
Remarks:
Altitude:
(Current/Filed)
18,000ft
Speed:
(Current/Filed)
300kts
Departed: 18-Sep-17 03:07 PM
Arrived: 18-Sep-17 04:09 PM
Distance/Time
Traveled:
169nm/1:02
Distance/Time
To Go:
Arrived

Flight Plot

Page will automatically refresh every two minutes.


Map Options




Map Legend


Flown Route
Filed Route
Departure Airport
Arrival Airport
Navaid (VOR, NDB)
Fix

Horizontal Profiles

Position Reports

Time Latitude Longitude Heading Altitude Ground
Speed
18-Sep-17 14:47 33.823765 -116.497974 54 481ft 0kts
18-Sep-17 14:48 33.823765 -116.497974 54 481ft 0kts
18-Sep-17 14:49 33.823765 -116.497974 54 481ft 0kts
18-Sep-17 14:50 33.823765 -116.497974 54 481ft 0kts
18-Sep-17 14:51 33.823765 -116.497974 54 481ft 0kts
18-Sep-17 14:52 33.823765 -116.497974 54 481ft 0kts
18-Sep-17 14:53 33.823765 -116.497974 54 481ft 0kts
18-Sep-17 14:54 33.823765 -116.497974 54 481ft 0kts
18-Sep-17 14:55 33.823765 -116.497974 54 481ft 0kts
18-Sep-17 14:56 33.823765 -116.497974 54 481ft 0kts
18-Sep-17 14:57 33.823765 -116.497974 54 481ft 0kts
18-Sep-17 14:58 33.823765 -116.497974 54 481ft 0kts
18-Sep-17 14:59 33.823765 -116.497974 54 481ft 0kts
18-Sep-17 15:00 33.823765 -116.497974 54 481ft 0kts
18-Sep-17 15:01 33.823765 -116.497974 54 481ft 0kts
18-Sep-17 15:02 33.823765 -116.497974 54 481ft 0kts
18-Sep-17 15:03 33.823765 -116.497974 54 481ft 0kts
18-Sep-17 15:04 33.823765 -116.497974 54 481ft 0kts
18-Sep-17 15:05 33.823765 -116.497974 54 481ft 0kts
18-Sep-17 15:06 33.823765 -116.497974 54 481ft 0kts
18-Sep-17 15:07 33.823765 -116.497974 54 481ft 0kts
18-Sep-17 15:08 33.823984 -116.497924 314 481ft 7kts
18-Sep-17 15:09 33.824653 -116.499573 227 481ft 0kts
18-Sep-17 15:10 33.824791 -116.500457 323 481ft 37kts
18-Sep-17 15:11 33.855944 -116.529263 321 1315ft 192kts
18-Sep-17 15:12 33.898821 -116.547949 40 3512ft 207kts
18-Sep-17 15:13 33.887919 -116.484621 110 5711ft 188kts
18-Sep-17 15:14 33.868847 -116.427770 116 7872ft 189kts
18-Sep-17 15:15 33.845049 -116.370780 118 9723ft 195kts
18-Sep-17 15:16 33.822679 -116.317993 120 11495ft 189kts
18-Sep-17 15:17 33.819546 -116.255053 34 11960ft 251kts
18-Sep-17 15:18 33.863031 -116.295743 265 11963ft 261kts
18-Sep-17 15:19 33.866624 -116.385553 273 11969ft 279kts
18-Sep-17 15:20 33.882372 -116.476367 284 11974ft 287kts
18-Sep-17 15:21 33.905246 -116.568077 284 11973ft 292kts
18-Sep-17 15:22 33.928491 -116.660070 284 11977ft 294kts
18-Sep-17 15:23 33.946539 -116.753442 267 12010ft 290kts
18-Sep-17 15:24 33.944741 -116.849525 265 12041ft 290kts
18-Sep-17 15:25 33.941532 -116.946505 265 11942ft 293kts
18-Sep-17 15:26 33.938028 -117.044493 266 11277ft 304kts
18-Sep-17 15:27 33.934457 -117.143887 267 10580ft 296kts
18-Sep-17 15:28 33.930451 -117.241468 266 9884ft 293kts
18-Sep-17 15:29 33.926250 -117.338654 266 9187ft 292kts
18-Sep-17 15:30 33.922273 -117.434704 266 9003ft 291kts
18-Sep-17 15:31 33.924894 -117.529232 296 9001ft 294kts
18-Sep-17 15:32 33.969116 -117.609906 304 9007ft 294kts
18-Sep-17 15:33 34.009170 -117.675461 305 9015ft 294kts
18-Sep-17 15:34 34.057612 -117.753583 305 9031ft 294kts
18-Sep-17 15:35 34.075833 -117.844931 270 9053ft 291kts
18-Sep-17 15:36 34.075855 -117.939431 268 9044ft 292kts
18-Sep-17 15:37 34.084447 -118.030625 287 9036ft 295kts
18-Sep-17 15:38 34.107681 -118.110340 288 9017ft 296kts
18-Sep-17 15:39 34.129398 -118.182007 288 9014ft 296kts
18-Sep-17 15:40 34.138087 -118.263597 271 8613ft 305kts
18-Sep-17 15:41 34.142403 -118.354005 272 8060ft 300kts
18-Sep-17 15:42 34.146667 -118.441501 272 8012ft 294kts
18-Sep-17 15:43 34.147406 -118.456712 272 8013ft 294kts
18-Sep-17 15:44 34.147406 -118.456712 272 8013ft 294kts
18-Sep-17 15:45 34.147406 -118.456712 272 8013ft 294kts
18-Sep-17 15:46 34.147044 -118.515049 267 8016ft 294kts
18-Sep-17 15:47 34.144593 -118.608735 267 8019ft 293kts
18-Sep-17 15:48 34.141928 -118.700069 266 8025ft 292kts
18-Sep-17 15:49 34.138763 -118.797200 266 8029ft 292kts
18-Sep-17 15:50 34.158202 -118.890110 286 8028ft 293kts
18-Sep-17 15:51 34.181737 -118.982861 285 8010ft 292kts
18-Sep-17 15:52 34.202807 -119.069477 285 7314ft 270kts
18-Sep-17 15:53 34.223312 -119.154754 285 6624ft 269kts
18-Sep-17 15:54 34.243659 -119.239650 285 6016ft 262kts
18-Sep-17 15:55 34.263080 -119.320760 285 6006ft 245kts
18-Sep-17 15:56 34.281541 -119.398194 285 6008ft 242kts
18-Sep-17 15:57 34.300726 -119.478871 286 6009ft 256kts
18-Sep-17 15:58 34.325875 -119.560140 293 6017ft 261kts
18-Sep-17 15:59 34.354785 -119.641484 293 5711ft 272kts
18-Sep-17 16:00 34.381384 -119.719696 295 5836ft 273kts
18-Sep-17 16:01 34.412517 -119.803625 293 5161ft 275kts
18-Sep-17 16:02 34.412272 -119.886459 262 4435ft 239kts
18-Sep-17 16:03 34.403078 -119.949226 252 4015ft 213kts
18-Sep-17 16:04 34.384696 -120.016315 252 4017ft 213kts
18-Sep-17 16:05 34.369188 -120.072815 252 3986ft 210kts
18-Sep-17 16:06 34.367654 -120.134525 327 3966ft 200kts
18-Sep-17 16:07 34.428749 -120.133242 63 3971ft 221kts
18-Sep-17 16:08 34.423980 -120.059606 93 3379ft 225kts
18-Sep-17 16:09 34.424676 -119.986659 90 2195ft 200kts
18-Sep-17 16:10 34.425771 -119.937806 90 1401ft 143kts
18-Sep-17 16:11 34.426901 -119.898658 90 686ft 110kts
18-Sep-17 16:12 34.427361 -119.862040 90 187ft 108kts
18-Sep-17 16:13 34.428642 -119.842009 340 17ft 0kts
18-Sep-17 16:14 34.428642 -119.842009 340 17ft 0kts
18-Sep-17 16:15 34.429780 -119.842131 46 17ft 14kts
18-Sep-17 16:16 34.431815 -119.836125 71 17ft 17kts
18-Sep-17 16:17 34.432608 -119.835883 246 17ft 0kts
18-Sep-17 16:18 34.432608 -119.835883 246 17ft 0kts
18-Sep-17 16:19 34.432608 -119.835883 246 17ft 0kts
18-Sep-17 16:20 34.432608 -119.835883 246 17ft 0kts
18-Sep-17 16:21 34.432608 -119.835883 246 17ft 0kts
18-Sep-17 16:22 34.432608 -119.835883 246 17ft 0kts
18-Sep-17 16:23 34.432608 -119.835883 246 17ft 0kts
18-Sep-17 16:24 34.432608 -119.835883 246 17ft 0kts
18-Sep-17 16:25 34.432608 -119.835883 246 17ft 0kts
18-Sep-17 16:26 34.432608 -119.835883 246 17ft 0kts
18-Sep-17 16:27 34.432608 -119.835883 246 17ft 0kts

Navigation Log

Ident Type
1. KPSP Airport
2. PSP Navaid
3. DEWAY Fix
4. ACINS Fix
5. LENHO Fix
6. KNDAL Fix
7. PDZ Navaid
8. POM Navaid
9. COVIN Fix
10. HOPUN Fix
11. ITSME Fix
12. ELMOO Fix
13. PURMS Fix
14. DARTS Fix
15. VNY Navaid
16. SESPE Fix
17. FIM Navaid
18. HENER Fix
19. DEANO Fix
20. KWANG Fix
21. KSBA Airport